Estación Meteorológica Peña el Pijo (Robertgarden) [ 01/30/23 14:13:29 CET ]

Fecha Hora Presion(HPa) Temp (°C) Humedad % Rocio (°C) Viento ( m/s) Direccion Lluvia 1Hora(mm) Lluvia 24H(mm) LLuvia Total(mm)
2010-Aug-27 01:01:16 1016.200 17.8 49 6.9         152.29
2010-Aug-27 02:01:17 1015.900 17.3 53 7.6         152.29
2010-Aug-27 03:01:14 1015.600 16.9 51 6.7         152.29
2010-Aug-27 04:01:16 1015.200 17.1 52 7.1         152.29
2010-Aug-27 05:01:15 1014.900 18.3 49 7.4         152.29
2010-Aug-27 06:01:15 1014.600 17.6 52 7.6         152.29
2010-Aug-27 07:01:15 1014.300 15.4 60 7.7         152.29
2010-Aug-27 08:01:17 1014.400 15.2 65 8.7         152.29
2010-Aug-27 09:01:14 1014.600 18.7 62 11.3         152.29
2010-Aug-27 10:01:12 1014.700 26.4 51 15.4         152.29
2010-Aug-27 11:01:15 1014.700 33.6 35 15.9         152.29
2010-Aug-27 12:01:16 1014.600 36.1 19 8.7         152.29
2010-Aug-27 13:01:14 1014.600 37.4 15 5.7         152.29
2010-Aug-27 14:01:13 1014.400 38.5 15 6.6         152.29
2010-Aug-27 15:01:15 1014.100 38.7 15 6.7         152.29
2010-Aug-27 16:01:15 1013.800 38.8 14 5.8         152.29
2010-Aug-27 17:01:37 1013.400 38.8 14 5.8         152.29
2010-Aug-27 18:01:38 1013.000 37.4 15 5.7         152.29
2010-Aug-27 19:01:38 1013.300 35.2 17 5.9         152.29
2010-Aug-27 20:01:37 1013.200 31.4 20 5.8         152.29
2010-Aug-27 21:01:16 1013.900 26.1 30 7.2         152.29
2010-Aug-27 22:01:15 1014.600 21.8 41 8.0         152.29
2010-Aug-27 23:01:16 1015.000 20.4 42 7.0         152.29

Temperatura Máxima:38°    Temperatura Mínima:15°
Presión Máxima:1016.200 Hpa    Presión Mínima:1013.000 Hpa


Volver